Neahkahnie, Oregon
Current Conditions -  °F | °C
As of 5:15 AM on Sunday 21 Dec 2014 (Local Time) from KTMK Reporting Station
Moderate Rain Moderate Rain  
Wind Chill: 55°   Ceiling: 1900
Heat Index: 55°   Visibility: 7mi
Dew Point: 54°   Wind: 8mph
Humidity: 94%   Direction: 220°SW
Pressure: 29.97"   Gusts: NA
Location:  45.7222°N, 123.684°W
Report Text: KTMK 211315Z AUTO 22007KT 7SM RA BKN019 BKN041 OVC048 13/12 A2997 RMK AO2
Loading
Personal Weather Stations






























Interactive Weather Map New forecast layout! Learn more

10-Day Weather Forecast

Advertisements
Track Severe Weather on mobile